sensor_id;sensor_type;location;lat;lon;timestamp;P1;durP1;ratioP1;P2;durP2;ratioP2
79399;SDS011;68856;45.586;10.264;2024-02-23T00:00:54;0.88;;;0.88;;
79399;SDS011;68856;45.586;10.264;2024-02-23T00:03:20;1.00;;;0.90;;
79399;SDS011;68856;45.586;10.264;2024-02-23T00:05:46;0.77;;;0.77;;
79399;SDS011;68856;45.586;10.264;2024-02-23T00:08:12;0.70;;;0.70;;
79399;SDS011;68856;45.586;10.264;2024-02-23T00:10:39;2.53;;;1.50;;
79399;SDS011;68856;45.586;10.264;2024-02-23T00:13:05;1.60;;;1.23;;
79399;SDS011;68856;45.586;10.264;2024-02-23T00:15:31;2.22;;;1.40;;
79399;SDS011;68856;45.586;10.264;2024-02-23T00:17:57;2.55;;;1.52;;
79399;SDS011;68856;45.586;10.264;2024-02-23T00:20:23;1.73;;;1.60;;
79399;SDS011;68856;45.586;10.264;2024-02-23T00:22:49;1.20;;;0.77;;
79399;SDS011;68856;45.586;10.264;2024-02-23T00:25:15;1.50;;;1.40;;
79399;SDS011;68856;45.586;10.264;2024-02-23T00:27:41;1.85;;;1.38;;
79399;SDS011;68856;45.586;10.264;2024-02-23T00:30:09;0.93;;;0.90;;
79399;SDS011;68856;45.586;10.264;2024-02-23T00:32:35;0.82;;;0.80;;
79399;SDS011;68856;45.586;10.264;2024-02-23T00:35:01;0.85;;;0.85;;
79399;SDS011;68856;45.586;10.264;2024-02-23T00:37:27;0.82;;;0.73;;
79399;SDS011;68856;45.586;10.264;2024-02-23T00:39:53;1.13;;;1.02;;
79399;SDS011;68856;45.586;10.264;2024-02-23T00:42:19;1.33;;;1.02;;
79399;SDS011;68856;45.586;10.264;2024-02-23T00:44:46;0.80;;;0.80;;
79399;SDS011;68856;45.586;10.264;2024-02-23T00:47:12;0.52;;;0.50;;
79399;SDS011;68856;45.586;10.264;2024-02-23T00:49:38;0.57;;;0.57;;
79399;SDS011;68856;45.586;10.264;2024-02-23T00:52:04;0.65;;;0.52;;
79399;SDS011;68856;45.586;10.264;2024-02-23T00:54:30;0.50;;;0.50;;
79399;SDS011;68856;45.586;10.264;2024-02-23T00:56:56;1.02;;;1.02;;
79399;SDS011;68856;45.586;10.264;2024-02-23T00:59:22;1.27;;;0.70;;
79399;SDS011;68856;45.586;10.264;2024-02-23T01:01:48;1.00;;;0.88;;
79399;SDS011;68856;45.586;10.264;2024-02-23T01:04:14;0.30;;;0.30;;
79399;SDS011;68856;45.586;10.264;2024-02-23T01:06:40;0.50;;;0.50;;
79399;SDS011;68856;45.586;10.264;2024-02-23T01:09:06;1.13;;;1.02;;
79399;SDS011;68856;45.586;10.264;2024-02-23T01:11:32;1.27;;;0.70;;
79399;SDS011;68856;45.586;10.264;2024-02-23T01:13:58;0.80;;;0.73;;
79399;SDS011;68856;45.586;10.264;2024-02-23T01:16:25;1.30;;;0.95;;
79399;SDS011;68856;45.586;10.264;2024-02-23T01:18:51;1.95;;;1.00;;
79399;SDS011;68856;45.586;10.264;2024-02-23T01:21:17;1.95;;;1.13;;
79399;SDS011;68856;45.586;10.264;2024-02-23T01:23:43;0.50;;;0.50;;
79399;SDS011;68856;45.586;10.264;2024-02-23T01:26:09;0.98;;;0.60;;
79399;SDS011;68856;45.586;10.264;2024-02-23T01:28:35;1.17;;;0.40;;
79399;SDS011;68856;45.586;10.264;2024-02-23T01:31:01;0.30;;;0.30;;
79399;SDS011;68856;45.586;10.264;2024-02-23T01:33:29;0.60;;;0.60;;
79399;SDS011;68856;45.586;10.264;2024-02-23T01:35:55;0.85;;;0.60;;
79399;SDS011;68856;45.586;10.264;2024-02-23T01:38:23;0.60;;;0.60;;
79399;SDS011;68856;45.586;10.264;2024-02-23T01:40:50;0.55;;;0.55;;
79399;SDS011;68856;45.586;10.264;2024-02-23T01:43:16;0.65;;;0.60;;
79399;SDS011;68856;45.586;10.264;2024-02-23T01:45:42;0.50;;;0.50;;
79399;SDS011;68856;45.586;10.264;2024-02-23T01:48:08;0.45;;;0.45;;
79399;SDS011;68856;45.586;10.264;2024-02-23T01:50:34;0.75;;;0.75;;
79399;SDS011;68856;45.586;10.264;2024-02-23T01:53:00;1.15;;;0.50;;
79399;SDS011;68856;45.586;10.264;2024-02-23T01:55:27;0.50;;;0.50;;
79399;SDS011;68856;45.586;10.264;2024-02-23T01:57:53;0.43;;;0.43;;
79399;SDS011;68856;45.586;10.264;2024-02-23T02:00:20;0.77;;;0.77;;
79399;SDS011;68856;45.586;10.264;2024-02-23T02:02:47;0.57;;;0.57;;
79399;SDS011;68856;45.586;10.264;2024-02-23T02:05:13;0.50;;;0.50;;
79399;SDS011;68856;45.586;10.264;2024-02-23T02:07:40;1.00;;;0.52;;
79399;SDS011;68856;45.586;10.264;2024-02-23T02:10:07;0.70;;;0.70;;
79399;SDS011;68856;45.586;10.264;2024-02-23T02:12:34;0.65;;;0.65;;
79399;SDS011;68856;45.586;10.264;2024-02-23T02:15:00;0.73;;;0.73;;
79399;SDS011;68856;45.586;10.264;2024-02-23T02:17:30;0.70;;;0.60;;
79399;SDS011;68856;45.586;10.264;2024-02-23T02:19:57;0.60;;;0.60;;
79399;SDS011;68856;45.586;10.264;2024-02-23T02:22:25;0.55;;;0.55;;
79399;SDS011;68856;45.586;10.264;2024-02-23T02:24:51;0.70;;;0.70;;
79399;SDS011;68856;45.586;10.264;2024-02-23T02:27:17;0.80;;;0.80;;
79399;SDS011;68856;45.586;10.264;2024-02-23T02:29:43;0.75;;;0.75;;
79399;SDS011;68856;45.586;10.264;2024-02-23T02:32:09;1.58;;;1.48;;
79399;SDS011;68856;45.586;10.264;2024-02-23T02:34:35;3.05;;;1.63;;
79399;SDS011;68856;45.586;10.264;2024-02-23T02:37:01;2.28;;;1.73;;
79399;SDS011;68856;45.586;10.264;2024-02-23T02:39:27;1.98;;;1.35;;
79399;SDS011;68856;45.586;10.264;2024-02-23T02:41:53;1.33;;;1.10;;
79399;SDS011;68856;45.586;10.264;2024-02-23T02:44:20;1.23;;;0.82;;
79399;SDS011;68856;45.586;10.264;2024-02-23T02:46:46;1.30;;;0.70;;
79399;SDS011;68856;45.586;10.264;2024-02-23T02:49:12;1.38;;;0.98;;
79399;SDS011;68856;45.586;10.264;2024-02-23T02:51:38;1.80;;;1.27;;
79399;SDS011;68856;45.586;10.264;2024-02-23T02:54:04;1.67;;;1.40;;
79399;SDS011;68856;45.586;10.264;2024-02-23T02:56:30;1.30;;;0.98;;
79399;SDS011;68856;45.586;10.264;2024-02-23T02:58:56;1.95;;;1.50;;
79399;SDS011;68856;45.586;10.264;2024-02-23T03:01:22;1.98;;;1.25;;
79399;SDS011;68856;45.586;10.264;2024-02-23T03:03:48;1.52;;;1.00;;
79399;SDS011;68856;45.586;10.264;2024-02-23T03:06:15;1.75;;;1.65;;
79399;SDS011;68856;45.586;10.264;2024-02-23T03:08:43;4.57;;;1.70;;
79399;SDS011;68856;45.586;10.264;2024-02-23T03:11:10;2.00;;;1.15;;
79399;SDS011;68856;45.586;10.264;2024-02-23T03:13:37;1.60;;;1.50;;
79399;SDS011;68856;45.586;10.264;2024-02-23T03:16:03;1.70;;;1.60;;
79399;SDS011;68856;45.586;10.264;2024-02-23T03:18:29;2.03;;;1.83;;
79399;SDS011;68856;45.586;10.264;2024-02-23T03:20:55;2.15;;;1.95;;
79399;SDS011;68856;45.586;10.264;2024-02-23T03:23:21;2.78;;;2.03;;
79399;SDS011;68856;45.586;10.264;2024-02-23T03:25:48;2.67;;;1.70;;
79399;SDS011;68856;45.586;10.264;2024-02-23T03:28:14;2.08;;;1.83;;
79399;SDS011;68856;45.586;10.264;2024-02-23T03:30:40;4.55;;;2.13;;
79399;SDS011;68856;45.586;10.264;2024-02-23T03:33:06;2.22;;;1.75;;
79399;SDS011;68856;45.586;10.264;2024-02-23T03:35:32;2.63;;;1.83;;
79399;SDS011;68856;45.586;10.264;2024-02-23T03:37:59;3.05;;;1.83;;
79399;SDS011;68856;45.586;10.264;2024-02-23T03:40:25;2.60;;;2.40;;
79399;SDS011;68856;45.586;10.264;2024-02-23T03:42:51;4.10;;;1.48;;
79399;SDS011;68856;45.586;10.264;2024-02-23T03:45:17;2.95;;;1.88;;
79399;SDS011;68856;45.586;10.264;2024-02-23T03:47:43;1.80;;;1.70;;
79399;SDS011;68856;45.586;10.264;2024-02-23T03:50:09;3.30;;;1.60;;
79399;SDS011;68856;45.586;10.264;2024-02-23T03:52:35;1.40;;;1.30;;
79399;SDS011;68856;45.586;10.264;2024-02-23T03:55:01;1.65;;;1.55;;
79399;SDS011;68856;45.586;10.264;2024-02-23T03:57:28;3.13;;;1.70;;
79399;SDS011;68856;45.586;10.264;2024-02-23T03:59:54;2.15;;;1.90;;
79399;SDS011;68856;45.586;10.264;2024-02-23T04:02:21;3.30;;;1.67;;
79399;SDS011;68856;45.586;10.264;2024-02-23T04:04:47;5.00;;;2.13;;
79399;SDS011;68856;45.586;10.264;2024-02-23T04:07:14;4.28;;;2.28;;
79399;SDS011;68856;45.586;10.264;2024-02-23T04:09:40;5.20;;;2.20;;
79399;SDS011;68856;45.586;10.264;2024-02-23T04:12:06;2.15;;;1.90;;
79399;SDS011;68856;45.586;10.264;2024-02-23T04:14:33;2.30;;;2.08;;
79399;SDS011;68856;45.586;10.264;2024-02-23T04:17:02;4.28;;;2.25;;
79399;SDS011;68856;45.586;10.264;2024-02-23T04:19:28;2.78;;;2.45;;
79399;SDS011;68856;45.586;10.264;2024-02-23T04:21:54;2.47;;;1.75;;
79399;SDS011;68856;45.586;10.264;2024-02-23T04:24:20;2.47;;;2.10;;
79399;SDS011;68856;45.586;10.264;2024-02-23T04:26:46;3.92;;;2.60;;
79399;SDS011;68856;45.586;10.264;2024-02-23T04:29:12;3.22;;;2.50;;
79399;SDS011;68856;45.586;10.264;2024-02-23T04:31:38;3.13;;;2.85;;
79399;SDS011;68856;45.586;10.264;2024-02-23T04:34:04;4.75;;;2.60;;
79399;SDS011;68856;45.586;10.264;2024-02-23T04:36:30;3.97;;;2.67;;
79399;SDS011;68856;45.586;10.264;2024-02-23T04:38:56;3.22;;;2.42;;
79399;SDS011;68856;45.586;10.264;2024-02-23T04:41:22;3.25;;;2.40;;
79399;SDS011;68856;45.586;10.264;2024-02-23T04:43:49;4.03;;;2.60;;
79399;SDS011;68856;45.586;10.264;2024-02-23T04:46:17;5.75;;;3.20;;
79399;SDS011;68856;45.586;10.264;2024-02-23T04:48:43;5.90;;;3.03;;
79399;SDS011;68856;45.586;10.264;2024-02-23T04:51:09;3.92;;;2.90;;
79399;SDS011;68856;45.586;10.264;2024-02-23T04:53:38;3.50;;;2.20;;
79399;SDS011;68856;45.586;10.264;2024-02-23T04:56:04;4.80;;;3.22;;
79399;SDS011;68856;45.586;10.264;2024-02-23T04:58:31;6.28;;;3.20;;
79399;SDS011;68856;45.586;10.264;2024-02-23T05:00:57;4.85;;;2.67;;
79399;SDS011;68856;45.586;10.264;2024-02-23T05:03:23;4.15;;;2.92;;
79399;SDS011;68856;45.586;10.264;2024-02-23T05:05:49;6.65;;;3.05;;
79399;SDS011;68856;45.586;10.264;2024-02-23T05:08:19;7.22;;;2.70;;
79399;SDS011;68856;45.586;10.264;2024-02-23T05:10:46;2.80;;;2.17;;
79399;SDS011;68856;45.586;10.264;2024-02-23T05:13:12;4.80;;;1.40;;
79399;SDS011;68856;45.586;10.264;2024-02-23T05:15:38;3.42;;;1.90;;
79399;SDS011;68856;45.586;10.264;2024-02-23T05:18:05;4.88;;;2.30;;
79399;SDS011;68856;45.586;10.264;2024-02-23T05:20:31;2.72;;;2.30;;
79399;SDS011;68856;45.586;10.264;2024-02-23T05:22:57;2.97;;;2.20;;
79399;SDS011;68856;45.586;10.264;2024-02-23T05:25:23;4.53;;;1.92;;
79399;SDS011;68856;45.586;10.264;2024-02-23T05:27:53;3.28;;;2.30;;
79399;SDS011;68856;45.586;10.264;2024-02-23T05:30:19;2.30;;;1.77;;
79399;SDS011;68856;45.586;10.264;2024-02-23T05:32:45;2.67;;;1.88;;
79399;SDS011;68856;45.586;10.264;2024-02-23T05:35:12;2.83;;;1.73;;
79399;SDS011;68856;45.586;10.264;2024-02-23T05:37:38;2.42;;;2.00;;
79399;SDS011;68856;45.586;10.264;2024-02-23T05:40:04;3.28;;;2.83;;
79399;SDS011;68856;45.586;10.264;2024-02-23T05:42:37;4.18;;;2.72;;
79399;SDS011;68856;45.586;10.264;2024-02-23T05:45:03;4.28;;;2.80;;
79399;SDS011;68856;45.586;10.264;2024-02-23T05:47:30;3.88;;;2.60;;
79399;SDS011;68856;45.586;10.264;2024-02-23T05:49:56;4.93;;;2.50;;
79399;SDS011;68856;45.586;10.264;2024-02-23T05:52:22;4.97;;;3.22;;
79399;SDS011;68856;45.586;10.264;2024-02-23T05:54:48;2.97;;;2.58;;
79399;SDS011;68856;45.586;10.264;2024-02-23T05:57:16;2.05;;;1.77;;
79399;SDS011;68856;45.586;10.264;2024-02-23T05:59:42;2.50;;;2.00;;
79399;SDS011;68856;45.586;10.264;2024-02-23T06:02:08;4.55;;;2.22;;
79399;SDS011;68856;45.586;10.264;2024-02-23T06:04:35;4.70;;;3.40;;
79399;SDS011;68856;45.586;10.264;2024-02-23T06:07:01;2.15;;;1.92;;
79399;SDS011;68856;45.586;10.264;2024-02-23T06:09:27;3.65;;;1.90;;
79399;SDS011;68856;45.586;10.264;2024-02-23T06:11:53;6.28;;;3.97;;
79399;SDS011;68856;45.586;10.264;2024-02-23T06:14:19;4.60;;;2.28;;
79399;SDS011;68856;45.586;10.264;2024-02-23T06:16:45;3.45;;;2.13;;
79399;SDS011;68856;45.586;10.264;2024-02-23T06:19:11;3.58;;;2.63;;
79399;SDS011;68856;45.586;10.264;2024-02-23T06:21:37;4.28;;;2.22;;
79399;SDS011;68856;45.586;10.264;2024-02-23T06:24:03;5.22;;;3.13;;
79399;SDS011;68856;45.586;10.264;2024-02-23T06:26:29;2.97;;;2.15;;
79399;SDS011;68856;45.586;10.264;2024-02-23T06:28:56;5.07;;;2.47;;
79399;SDS011;68856;45.586;10.264;2024-02-23T06:31:22;4.80;;;3.20;;
79399;SDS011;68856;45.586;10.264;2024-02-23T06:33:48;6.40;;;3.95;;
79399;SDS011;68856;45.586;10.264;2024-02-23T06:36:16;2.67;;;2.40;;
79399;SDS011;68856;45.586;10.264;2024-02-23T06:38:43;3.75;;;2.50;;
79399;SDS011;68856;45.586;10.264;2024-02-23T06:41:09;4.70;;;2.03;;
79399;SDS011;68856;45.586;10.264;2024-02-23T06:43:36;2.15;;;1.73;;
79399;SDS011;68856;45.586;10.264;2024-02-23T06:46:08;2.60;;;1.88;;
79399;SDS011;68856;45.586;10.264;2024-02-23T06:48:37;2.05;;;1.60;;
79399;SDS011;68856;45.586;10.264;2024-02-23T06:51:04;2.85;;;2.15;;
79399;SDS011;68856;45.586;10.264;2024-02-23T06:53:30;3.75;;;2.78;;
79399;SDS011;68856;45.586;10.264;2024-02-23T06:55:56;5.28;;;2.88;;
79399;SDS011;68856;45.586;10.264;2024-02-23T06:58:24;2.50;;;2.30;;
79399;SDS011;68856;45.586;10.264;2024-02-23T07:00:50;4.90;;;3.13;;
79399;SDS011;68856;45.586;10.264;2024-02-23T07:03:16;4.47;;;2.45;;
79399;SDS011;68856;45.586;10.264;2024-02-23T07:05:42;2.10;;;1.90;;
79399;SDS011;68856;45.586;10.264;2024-02-23T07:08:08;1.67;;;1.48;;
79399;SDS011;68856;45.586;10.264;2024-02-23T07:10:34;2.17;;;1.63;;
79399;SDS011;68856;45.586;10.264;2024-02-23T07:13:00;2.40;;;1.88;;
79399;SDS011;68856;45.586;10.264;2024-02-23T07:15:27;2.25;;;2.05;;
79399;SDS011;68856;45.586;10.264;2024-02-23T07:17:53;2.25;;;1.77;;
79399;SDS011;68856;45.586;10.264;2024-02-23T07:20:19;2.50;;;2.00;;
79399;SDS011;68856;45.586;10.264;2024-02-23T07:22:45;1.95;;;1.85;;
79399;SDS011;68856;45.586;10.264;2024-02-23T07:25:11;1.92;;;1.77;;
79399;SDS011;68856;45.586;10.264;2024-02-23T07:27:37;8.40;;;7.53;;
79399;SDS011;68856;45.586;10.264;2024-02-23T07:30:04;2.58;;;1.77;;
79399;SDS011;68856;45.586;10.264;2024-02-23T07:32:30;2.40;;;2.17;;
79399;SDS011;68856;45.586;10.264;2024-02-23T07:34:56;2.58;;;2.20;;
79399;SDS011;68856;45.586;10.264;2024-02-23T07:37:22;2.00;;;1.80;;
79399;SDS011;68856;45.586;10.264;2024-02-23T07:39:48;2.97;;;1.70;;
79399;SDS011;68856;45.586;10.264;2024-02-23T07:42:14;3.33;;;1.60;;
79399;SDS011;68856;45.586;10.264;2024-02-23T07:44:43;2.58;;;2.33;;
79399;SDS011;68856;45.586;10.264;2024-02-23T07:47:09;1.60;;;1.50;;
79399;SDS011;68856;45.586;10.264;2024-02-23T07:49:35;3.05;;;2.47;;
79399;SDS011;68856;45.586;10.264;2024-02-23T07:52:02;3.75;;;3.17;;
79399;SDS011;68856;45.586;10.264;2024-02-23T07:54:28;3.85;;;2.45;;
79399;SDS011;68856;45.586;10.264;2024-02-23T07:56:54;2.92;;;2.15;;
79399;SDS011;68856;45.586;10.264;2024-02-23T07:59:22;3.55;;;2.38;;
79399;SDS011;68856;45.586;10.264;2024-02-23T08:01:48;3.03;;;1.80;;
79399;SDS011;68856;45.586;10.264;2024-02-23T08:04:14;3.72;;;2.30;;
79399;SDS011;68856;45.586;10.264;2024-02-23T08:06:41;2.10;;;1.73;;
79399;SDS011;68856;45.586;10.264;2024-02-23T08:09:08;5.13;;;2.28;;
79399;SDS011;68856;45.586;10.264;2024-02-23T08:11:34;1.48;;;1.38;;
79399;SDS011;68856;45.586;10.264;2024-02-23T08:14:00;2.15;;;1.70;;
79399;SDS011;68856;45.586;10.264;2024-02-23T08:16:28;1.60;;;1.50;;
79399;SDS011;68856;45.586;10.264;2024-02-23T08:18:54;4.43;;;1.70;;
79399;SDS011;68856;45.586;10.264;2024-02-23T08:21:20;1.67;;;1.33;;
79399;SDS011;68856;45.586;10.264;2024-02-23T08:23:46;1.50;;;1.40;;
79399;SDS011;68856;45.586;10.264;2024-02-23T08:26:12;2.45;;;1.30;;
79399;SDS011;68856;45.586;10.264;2024-02-23T08:28:38;1.98;;;1.20;;
79399;SDS011;68856;45.586;10.264;2024-02-23T08:31:04;1.30;;;1.20;;
79399;SDS011;68856;45.586;10.264;2024-02-23T08:33:30;0.80;;;0.80;;
79399;SDS011;68856;45.586;10.264;2024-02-23T08:35:56;2.22;;;1.13;;
79399;SDS011;68856;45.586;10.264;2024-02-23T08:38:22;1.67;;;1.30;;
79399;SDS011;68856;45.586;10.264;2024-02-23T08:40:48;1.80;;;1.67;;
79399;SDS011;68856;45.586;10.264;2024-02-23T08:43:15;2.30;;;1.70;;
79399;SDS011;68856;45.586;10.264;2024-02-23T08:45:41;4.03;;;1.98;;
79399;SDS011;68856;45.586;10.264;2024-02-23T08:48:07;2.45;;;2.08;;
79399;SDS011;68856;45.586;10.264;2024-02-23T08:50:33;2.42;;;1.90;;
79399;SDS011;68856;45.586;10.264;2024-02-23T08:52:59;0.93;;;0.88;;
79399;SDS011;68856;45.586;10.264;2024-02-23T08:55:50;0.82;;;0.80;;
79399;SDS011;68856;45.586;10.264;2024-02-23T08:58:16;1.00;;;0.88;;
79399;SDS011;68856;45.586;10.264;2024-02-23T09:00:42;2.05;;;1.80;;
79399;SDS011;68856;45.586;10.264;2024-02-23T09:03:08;2.63;;;2.42;;
79399;SDS011;68856;45.586;10.264;2024-02-23T09:05:34;4.10;;;3.22;;
79399;SDS011;68856;45.586;10.264;2024-02-23T09:08:00;3.47;;;3.03;;
79399;SDS011;68856;45.586;10.264;2024-02-23T09:10:26;4.85;;;3.15;;
79399;SDS011;68856;45.586;10.264;2024-02-23T09:12:52;4.20;;;3.33;;
79399;SDS011;68856;45.586;10.264;2024-02-23T09:15:18;4.78;;;3.22;;
79399;SDS011;68856;45.586;10.264;2024-02-23T09:17:44;4.40;;;3.83;;
79399;SDS011;68856;45.586;10.264;2024-02-23T09:20:10;9.00;;;3.58;;
79399;SDS011;68856;45.586;10.264;2024-02-23T09:22:37;5.07;;;3.40;;
79399;SDS011;68856;45.586;10.264;2024-02-23T09:25:04;3.88;;;3.13;;
79399;SDS011;68856;45.586;10.264;2024-02-23T09:27:31;3.53;;;2.65;;
79399;SDS011;68856;45.586;10.264;2024-02-23T09:29:57;5.47;;;2.70;;
79399;SDS011;68856;45.586;10.264;2024-02-23T09:32:24;3.33;;;2.20;;
79399;SDS011;68856;45.586;10.264;2024-02-23T09:34:50;4.90;;;2.72;;
79399;SDS011;68856;45.586;10.264;2024-02-23T09:37:16;5.70;;;3.78;;
79399;SDS011;68856;45.586;10.264;2024-02-23T09:39:42;4.32;;;3.05;;
79399;SDS011;68856;45.586;10.264;2024-02-23T09:42:09;4.32;;;3.58;;
79399;SDS011;68856;45.586;10.264;2024-02-23T09:44:36;3.08;;;2.72;;
79399;SDS011;68856;45.586;10.264;2024-02-23T09:47:02;3.17;;;2.88;;
79399;SDS011;68856;45.586;10.264;2024-02-23T09:49:42;4.75;;;3.42;;
79399;SDS011;68856;45.586;10.264;2024-02-23T09:52:08;4.35;;;2.88;;
79399;SDS011;68856;45.586;10.264;2024-02-23T09:54:35;5.43;;;3.65;;
79399;SDS011;68856;45.586;10.264;2024-02-23T09:57:02;3.85;;;3.45;;
79399;SDS011;68856;45.586;10.264;2024-02-23T09:59:32;3.95;;;3.28;;
79399;SDS011;68856;45.586;10.264;2024-02-23T10:01:59;4.63;;;2.88;;
79399;SDS011;68856;45.586;10.264;2024-02-23T10:04:25;2.50;;;1.70;;
79399;SDS011;68856;45.586;10.264;2024-02-23T10:06:56;3.78;;;2.90;;
79399;SDS011;68856;45.586;10.264;2024-02-23T10:09:22;1.95;;;1.60;;
79399;SDS011;68856;45.586;10.264;2024-02-23T10:11:52;1.65;;;1.20;;
79399;SDS011;68856;45.586;10.264;2024-02-23T10:14:18;2.03;;;1.55;;
79399;SDS011;68856;45.586;10.264;2024-02-23T10:16:45;1.90;;;1.80;;
79399;SDS011;68856;45.586;10.264;2024-02-23T10:19:11;2.88;;;2.30;;
79399;SDS011;68856;45.586;10.264;2024-02-23T10:21:37;6.28;;;3.20;;
79399;SDS011;68856;45.586;10.264;2024-02-23T10:24:04;6.13;;;3.42;;
79399;SDS011;68856;45.586;10.264;2024-02-23T10:26:31;1.80;;;1.42;;
79399;SDS011;68856;45.586;10.264;2024-02-23T10:28:57;3.25;;;2.55;;
79399;SDS011;68856;45.586;10.264;2024-02-23T10:31:24;4.97;;;2.28;;
79399;SDS011;68856;45.586;10.264;2024-02-23T10:33:50;4.32;;;3.10;;
79399;SDS011;68856;45.586;10.264;2024-02-23T10:36:17;5.28;;;3.83;;
79399;SDS011;68856;45.586;10.264;2024-02-23T10:38:47;4.70;;;3.97;;
79399;SDS011;68856;45.586;10.264;2024-02-23T10:41:15;4.15;;;3.35;;
79399;SDS011;68856;45.586;10.264;2024-02-23T10:43:46;5.47;;;3.90;;
79399;SDS011;68856;45.586;10.264;2024-02-23T10:46:12;7.82;;;4.88;;
79399;SDS011;68856;45.586;10.264;2024-02-23T10:48:39;6.05;;;3.85;;
79399;SDS011;68856;45.586;10.264;2024-02-23T10:51:06;4.68;;;3.95;;
79399;SDS011;68856;45.586;10.264;2024-02-23T10:53:33;6.85;;;4.70;;
79399;SDS011;68856;45.586;10.264;2024-02-23T10:56:00;9.95;;;6.15;;
79399;SDS011;68856;45.586;10.264;2024-02-23T10:58:26;10.05;;;5.28;;
79399;SDS011;68856;45.586;10.264;2024-02-23T11:00:53;21.05;;;9.93;;
79399;SDS011;68856;45.586;10.264;2024-02-23T11:03:25;5.32;;;3.67;;
79399;SDS011;68856;45.586;10.264;2024-02-23T11:05:53;5.32;;;3.22;;
79399;SDS011;68856;45.586;10.264;2024-02-23T11:08:20;5.25;;;3.47;;
79399;SDS011;68856;45.586;10.264;2024-02-23T11:10:49;5.72;;;3.60;;
79399;SDS011;68856;45.586;10.264;2024-02-23T11:13:17;4.78;;;3.40;;
79399;SDS011;68856;45.586;10.264;2024-02-23T11:15:43;4.88;;;3.38;;
79399;SDS011;68856;45.586;10.264;2024-02-23T11:18:28;3.85;;;3.10;;
79399;SDS011;68856;45.586;10.264;2024-02-23T11:20:54;4.32;;;2.95;;
79399;SDS011;68856;45.586;10.264;2024-02-23T11:23:21;4.30;;;3.15;;
79399;SDS011;68856;45.586;10.264;2024-02-23T11:28:30;1.20;;;1.10;;
79399;SDS011;68856;45.586;10.264;2024-02-23T11:30:57;2.33;;;1.63;;
79399;SDS011;68856;45.586;10.264;2024-02-23T11:33:28;2.00;;;1.80;;
79399;SDS011;68856;45.586;10.264;2024-02-23T11:36:42;2.28;;;2.08;;
79399;SDS011;68856;45.586;10.264;2024-02-23T11:38:43;1.58;;;1.48;;
79399;SDS011;68856;45.586;10.264;2024-02-23T11:41:10;1.50;;;1.40;;
79399;SDS011;68856;45.586;10.264;2024-02-23T11:43:36;1.35;;;1.23;;
79399;SDS011;68856;45.586;10.264;2024-02-23T11:46:03;1.02;;;0.73;;
79399;SDS011;68856;45.586;10.264;2024-02-23T11:48:29;1.05;;;0.80;;
79399;SDS011;68856;45.586;10.264;2024-02-23T11:50:55;0.70;;;0.70;;
79399;SDS011;68856;45.586;10.264;2024-02-23T11:53:21;1.23;;;1.17;;
79399;SDS011;68856;45.586;10.264;2024-02-23T11:55:50;0.88;;;0.85;;
79399;SDS011;68856;45.586;10.264;2024-02-23T11:58:16;2.80;;;1.70;;
79399;SDS011;68856;45.586;10.264;2024-02-23T12:00:43;4.18;;;3.45;;
79399;SDS011;68856;45.586;10.264;2024-02-23T12:03:10;4.85;;;3.17;;
79399;SDS011;68856;45.586;10.264;2024-02-23T12:05:37;5.47;;;2.92;;
79399;SDS011;68856;45.586;10.264;2024-02-23T12:08:03;3.53;;;2.85;;
79399;SDS011;68856;45.586;10.264;2024-02-23T12:10:30;3.40;;;2.63;;
79399;SDS011;68856;45.586;10.264;2024-02-23T12:12:56;2.72;;;2.53;;
79399;SDS011;68856;45.586;10.264;2024-02-23T12:15:24;3.65;;;3.20;;
79399;SDS011;68856;45.586;10.264;2024-02-23T12:17:50;5.60;;;3.25;;
79399;SDS011;68856;45.586;10.264;2024-02-23T12:20:16;3.72;;;3.28;;
79399;SDS011;68856;45.586;10.264;2024-02-23T12:22:42;4.38;;;3.13;;
79399;SDS011;68856;45.586;10.264;2024-02-23T12:25:08;4.30;;;3.08;;
79399;SDS011;68856;45.586;10.264;2024-02-23T12:27:34;2.95;;;2.70;;
79399;SDS011;68856;45.586;10.264;2024-02-23T12:30:00;3.60;;;3.10;;
79399;SDS011;68856;45.586;10.264;2024-02-23T12:32:26;4.00;;;3.55;;
79399;SDS011;68856;45.586;10.264;2024-02-23T12:34:52;4.85;;;4.13;;
79399;SDS011;68856;45.586;10.264;2024-02-23T12:37:19;5.57;;;4.53;;
79399;SDS011;68856;45.586;10.264;2024-02-23T12:39:47;5.95;;;3.92;;
79399;SDS011;68856;45.586;10.264;2024-02-23T12:42:13;5.05;;;4.45;;
79399;SDS011;68856;45.586;10.264;2024-02-23T12:44:39;7.97;;;5.68;;
79399;SDS011;68856;45.586;10.264;2024-02-23T12:47:05;6.65;;;4.90;;
79399;SDS011;68856;45.586;10.264;2024-02-23T12:49:31;8.32;;;6.47;;
79399;SDS011;68856;45.586;10.264;2024-02-23T12:51:57;7.85;;;7.05;;
79399;SDS011;68856;45.586;10.264;2024-02-23T12:54:23;9.93;;;6.10;;
79399;SDS011;68856;45.586;10.264;2024-02-23T12:56:49;8.05;;;6.05;;
79399;SDS011;68856;45.586;10.264;2024-02-23T12:59:15;7.80;;;7.00;;
79399;SDS011;68856;45.586;10.264;2024-02-23T13:01:41;7.35;;;6.68;;
79399;SDS011;68856;45.586;10.264;2024-02-23T13:04:07;6.93;;;5.32;;
79399;SDS011;68856;45.586;10.264;2024-02-23T13:06:38;6.07;;;5.10;;
79399;SDS011;68856;45.586;10.264;2024-02-23T13:09:05;6.97;;;5.45;;
79399;SDS011;68856;45.586;10.264;2024-02-23T13:11:34;7.25;;;5.50;;
79399;SDS011;68856;45.586;10.264;2024-02-23T13:14:00;7.57;;;5.50;;
79399;SDS011;68856;45.586;10.264;2024-02-23T13:16:27;8.55;;;5.10;;
79399;SDS011;68856;45.586;10.264;2024-02-23T13:18:53;6.05;;;5.45;;
79399;SDS011;68856;45.586;10.264;2024-02-23T13:21:19;6.93;;;5.30;;
79399;SDS011;68856;45.586;10.264;2024-02-23T13:23:45;9.30;;;5.75;;
79399;SDS011;68856;45.586;10.264;2024-02-23T13:26:11;10.00;;;7.30;;
79399;SDS011;68856;45.586;10.264;2024-02-23T13:28:39;9.93;;;7.50;;
79399;SDS011;68856;45.586;10.264;2024-02-23T13:31:05;7.45;;;6.32;;
79399;SDS011;68856;45.586;10.264;2024-02-23T13:33:32;6.47;;;5.82;;
79399;SDS011;68856;45.586;10.264;2024-02-23T13:35:58;8.32;;;6.68;;
79399;SDS011;68856;45.586;10.264;2024-02-23T13:38:24;9.60;;;5.85;;
79399;SDS011;68856;45.586;10.264;2024-02-23T13:40:50;8.38;;;6.65;;
79399;SDS011;68856;45.586;10.264;2024-02-23T13:43:17;10.45;;;8.40;;
79399;SDS011;68856;45.586;10.264;2024-02-23T13:45:52;10.88;;;8.38;;
79399;SDS011;68856;45.586;10.264;2024-02-23T13:48:18;7.10;;;5.93;;
79399;SDS011;68856;45.586;10.264;2024-02-23T13:50:47;6.13;;;4.50;;
79399;SDS011;68856;45.586;10.264;2024-02-23T13:53:14;5.10;;;3.83;;
79399;SDS011;68856;45.586;10.264;2024-02-23T13:55:40;5.95;;;3.88;;
79399;SDS011;68856;45.586;10.264;2024-02-23T13:58:09;6.15;;;4.18;;
79399;SDS011;68856;45.586;10.264;2024-02-23T14:00:36;5.78;;;4.68;;
79399;SDS011;68856;45.586;10.264;2024-02-23T14:03:02;6.72;;;6.07;;
79399;SDS011;68856;45.586;10.264;2024-02-23T14:05:28;6.93;;;5.57;;
79399;SDS011;68856;45.586;10.264;2024-02-23T14:07:55;5.90;;;5.38;;
79399;SDS011;68856;45.586;10.264;2024-02-23T14:10:21;6.78;;;5.20;;
79399;SDS011;68856;45.586;10.264;2024-02-23T14:12:47;6.57;;;5.60;;
79399;SDS011;68856;45.586;10.264;2024-02-23T14:15:15;9.02;;;6.82;;
79399;SDS011;68856;45.586;10.264;2024-02-23T14:17:42;16.92;;;11.38;;
79399;SDS011;68856;45.586;10.264;2024-02-23T14:20:08;7.20;;;5.53;;
79399;SDS011;68856;45.586;10.264;2024-02-23T14:22:34;7.55;;;5.80;;
79399;SDS011;68856;45.586;10.264;2024-02-23T14:25:00;6.25;;;5.55;;
79399;SDS011;68856;45.586;10.264;2024-02-23T14:27:27;6.88;;;5.53;;
79399;SDS011;68856;45.586;10.264;2024-02-23T14:29:53;6.35;;;5.55;;
79399;SDS011;68856;45.586;10.264;2024-02-23T14:32:19;6.22;;;5.63;;